Fort Lauderdale, FL (33309)

10:10 AM EDT on September 26, 2016 (GMT -0400)
Villas at Lakeview | | Change Station

Elev 23 ft 26.19 °N, 80.18 °W | Updated 55 seconds ago

Clear
Clear
88.2 °F
Feels Like 97 °F
N
3.0
Wind Variable Wind from NE

Today
High -- | Low -- °F
--% Chance of Precip.
Yesterday
High -- | Low -- °F
Precip. -- in
Pressure 30.01 in
Visibility 10.0 miles
Clouds Clear
Heat Index 97 °F
Dew Point 74 °F
Humidity 63%
Rainfall 0.00 in
Snow Depth Not available.
7:11 AM 7:12 PM
Waning Crescent, 18% visible
METAR KFXE 261353Z 00000KT 10SM CLR 28/23 A3000 RMK AO2 SLP163 T02830228
Pressure 30.01 in
Visibility 10.0 miles
Clouds Clear
Heat Index 97 °F
Dew Point 74 °F
Humidity 63%
Rainfall 0.00 in
Snow Depth Not available.
7:11 AM 7:12 PM
Waning Crescent, 18% visible
METAR KFXE 261353Z 00000KT 10SM CLR 28/23 A3000 RMK AO2 SLP163 T02830228

10-Day Weather Forecast

Almanac

Astronomy

Sep. 26, 2016 Rise Set
Actual Time
Civil Twilight
Nautical Twilight
Astronomical Twilight
Moon
Length of Visible Light
Length of Day
Tomorrow will be .
, % of the Moon is Illuminated

Today's Extremes

State Highs State Lows

Community

WunderPhotos

Upload Photos

1,941,884 photos uploaded!

WunderBlog® & News

Nearby

Air Quality

  Air Quality AQ Index Pollutant
Not available.

Snow Depth

Station Depth Elevation

Earthquake Activity

City Distance Mag. Time & Date
Minimum magnitude displayed is 2.5.

Coastal Water Temperatures

Place Temperature

Stations

Nearby Weather Stations

Station Location Temp. Windchill Dew Point Humidity Wind Precip. Elev Updated Type
                   

Watches & Warnings

There are currently no watches in effect.